NWS Home NWS Lubbock West Texas Mesonet Latest Conditions as of 1222 PM, Mon Jul 06, 2020

Latest   N   C   S   Daily Sum   3hrΔ   24hrΔ   Soil Data 
Site Map   24hr Precip   72hr Precip   Google Plot


Station Time of Last Temp Dew Pt. RH Wind Direction Wind Speed Wind Gust Max Wind Max Temp Min Temp Max RH Min RH Altimeter 1HR Rain Today's Rain Solar Rad RFTI
Abernathy 5ENE  12:15 PM 80 67 67% NE813 18 mph 85° @ 1245 AM 81 67 96 66 30.08" 0 0.09 441 0
Adrian 6WSW  12:15 PM 80 60 50% NE89 14 mph 33° @ 1111 AM 81 62 98 48 30.16" 0 0 1081 0
Aiken 3WSW  12:15 PM 82 66 58% NE67 22 mph 223° @ 1202 AM 82 67 97 58 30.09" 0 0.01 727 0
Amarillo 15NNW   12:15 PM 85 60 43% NE810 17 mph 45° @ 1202 AM 85 66 95 43 30.09" 0 0 911 0
Amarillo 7SSE  12:15 PM 83 60 45% E69 17 mph 10° @ 1149 AM 84 64 100 45 30.12" 0 0.04 993 0
Amarillo 9NNE  12:15 PM 83 60 46% N35 14 mph 71° @ 1204 AM 84 64 98 45 30.09" 0 0 948 0
Amherst 1NE  12:15 PM 80 65 64% NE917 17 mph 31° @ 1215 PM 80 67 96 63 30.10" 0 0.02 938 0
Andrews 2E  12:15 PM 85 62 49% E59 16 mph 59° @ 1225 AM 85 67 94 49 30.06" 0 0 905 0
Anton 6SSW  12:15 PM 82 65 60% NE912 19 mph 53° @ 0110 AM 82 67 98 58 30.08" 0 0.05 619 0
Aspermont 3NE  12:15 PM 82 69 67% NE611 18 mph 181° @ 0250 AM 82 71 87 65 29.99" 0 0 412 0
Big Bend NP - Castolon  12:15 PM 98 55 25% E56 12 mph 310° @ 0545 AM 98 82 52 24 29.92" 0 0 989 0
Big Bend NP - Persimmon Gap  12:15 PM 91 56 31% NE514 21 mph 347° @ 1229 AM 92 80 42 30 29.99" 0 0 865 0
Big Lake 1WNW  12:15 PM 87 63 45% SE34 30 mph 360° @ 1230 AM 88 70 83 44 30.02" 0 0.02 973 0
Bootleg 11WNW  12:15 PM 79 63 59% NE810 14 mph 40° @ 1112 AM 79 61 100 58 30.18" 0 0 898 0
Borger 7E  12:15 PM 84 62 47% N810 16 mph 29° @ 1200 PM 85 65 96 46 30.08" 0 0 1001 0
Boys Ranch 1WSW  12:15 PM 84 62 47% W01 15 mph 85° @ 1254 AM 84 66 100 47 30.08" 0 0 868 0
Brownfield 2S  12:15 PM 81 64 60% NE913 17 mph 27° @ 0915 AM 81 69 90 60 30.07" 0 0.01 948 0
Canadian 6E  12:15 PM 86 67 53% N48 13 mph 53° @ 1203 PM 86 63 100 50 30.03" 0 0 972 0
Caprock Canyons State Park  12:15 PM 83 65 54% NE57 14 mph 30° @ 1157 AM 84 69 97 51 30.05" 0 0 998 0
Childress 2NNE  12:15 PM 86 65 52% NE712 16 mph 340° @ 0915 AM 88 71 97 50 29.99" 0 0 351 0
Clarendon 2WSW  12:15 PM 83 62 53% NE710 12 mph 23° @ 1025 AM 83 67 95 53 30.06" 0 0 938 0
Claude 12SW  12:15 PM 84 63 49% NE811 14 mph 80° @ 1216 AM 84 66 100 49 30.10" 0 0 998 0
Clyde 2WNW  12:15 PM 83 72 68% N46 33 mph 266° @ 0151 AM 84 68 98 62 30.01" 0 0.17 1011 0
Colorado City 5NW  12:15 PM 79 70 72% N12 30 mph 265° @ 1202 AM 79 67 97 72 30.03" 0 0.67 319 0
Comanche Springs  12:15 PM 86 69 57% E712 15 mph 53° @ 1159 AM 86 71 98 55 29.98" 0 0.03 490 0
Coyanosa 2N  12:15 PM 87 63 44% NE67 32 mph 139° @ 0239 AM 87 69 89 36 30.03" 0 0 914 0
Crane 1NNW   12:15 PM 88 61 40% SE12 27 mph 57° @ 0129 AM 88 70 83 39 30.01" 0 0 791 0
Crowell 1E  12:15 PM 86 70 59% NE35 14 mph 80° @ 1104 AM 86 71 98 58 29.98" 0 0.74 1174 0
Dell City  12:15 PM 89 58 35% SE12 15 mph 322° @ 1205 AM 90 68 72 34 30.07" 0 0 871 0
Denver City 7WNW  12:15 PM 84 56 40% N814 20 mph 137° @ 1210 AM 84 64 97 40 30.08" 0 0 933 0
Dimmitt 2NE  12:15 PM 81 62 55% N812 27 mph 77° @ 0245 AM 81 63 96 55 30.11" 0 0 748 0
Doole 3WNW  12:15 PM 79 70 76% NE45 28 mph 327° @ 0251 AM 79 71 92 61 29.98" 0 0.01 177 0
Dora NM 2SW  12:15 PM 82 60 49% NE915 23 mph 20° @ 1150 AM 82 63 90 49 30.13" 0 0 939 0
Dozier 3W  12:15 PM 87 68 53% NE812 14 mph 68° @ 1155 AM 88 67 100 53 30.03" 0 0 233 0
Earth 9WSW  12:15 PM 83 66 57% NE1315 15 mph 28° @ 1215 PM 83 64 95 55 30.11" 0 0 1029 0
Endee NM 2SW  12:15 PM 82 60 47% NE45 13 mph 51° @ 1117 AM 83 59 97 46 30.13" 0 0 921 0
Estelline 3SSE  12:15 PM 88 69 53% N1018 18 mph 15° @ 1215 PM 88 71 96 52 29.99" 0 0.01 185 0
Floydada 2NNE  12:15 PM 84 62 49% NE814 35 mph 241° @ 1230 AM 84 67 90 49 30.06" 0 0 515 0
Fluvanna 3WNW  12:15 PM 77 67 76% NE25 22 mph 234° @ 1210 AM 77 67 97 76 30.04" 0 0.49 446 0
Fort Chadbourne  12:15 PM 81 68 64% W36 35 mph 312° @ 1242 AM 81 69 100 62 30.01" 0 0.02 479 0
Fort Lancaster  12:15 PM 89 65 46% NE34 28 mph 34° @ 0147 AM 89 76 62 35 29.98" 0 0 340 0
Fort Lewis CO  12:15 PM 80 44 28% E78 16 mph 37° @ 0347 AM 81 52 67 27 30.36" 0 0 948 0
Fort McKavett  12:15 PM 82 71 69% N57 22 mph 328° @ 0248 AM 85 72 92 48 30.01" 0 0 106 0
Friona 2NE  12:15 PM 81 63 57% NE711 13 mph 42° @ 1205 PM 81 61 99 57 30.13" 0 0.01 1028 0
Fritch 1WNW  12:15 PM 83 64 53% N89 15 mph 84° @ 1211 AM 83 69 92 52 30.09" 0 0 921 0
Gail 2ESE  12:15 PM 80 66 66% N69 18 mph 266° @ 1215 AM 81 67 95 65 30.03" 0 0.32 901 0
Goodlett 3W  12:15 PM 88 66 51% NE914 17 mph 51° @ 1210 PM 88 72 95 50 29.97" 0 0.01 936 0
Goodnight  12:15 PM 84 63 50% E812 14 mph 52° @ 1209 PM 84 65 98 49 30.10" 0 0 884 0
Graham 5SSW  12:15 PM 79 67 71% NE710 22 mph 346° @ 1255 AM 79 68 97 70 30.05" 0 0.17 969 0
Guadalupe Mtns Natl Park  12:15 PM 79 57 48% E911 19 mph 76° @ 1154 AM 79 64 80 46 30.21" 0 0 870 0
Guthrie 10WSW  12:15 PM 84 66 59% NE1115 22 mph 287° @ 0355 AM 84 67 98 59 30.00" 0 1.62 812 0
Hackberry 2SSE  12:15 PM 84 70 62% NE58 14 mph 27° @ 0655 AM 84 70 98 61 29.99" 0 0.18 377 0
Happy 1E  12:15 PM 79 65 61% N58 39 mph 96° @ 0145 AM 81 63 99 59 30.11" 0 1.65 762 0
Hart 3N  12:15 PM 81 65 60% NE68 33 mph 56° @ 0300 AM 81 67 97 60 30.10" 0 0 977 0
Haskell 1NW  12:15 PM 80 69 72% E68 23 mph 191° @ 0220 AM 80 70 95 69 29.98" 0 0.14 458 0
Hefner 1SW  12:15 PM 85 69 58% NE69 21 mph 192° @ 0301 AM 86 74 84 56 29.98" 0 0 572 0
Hereford 2NW  12:15 PM 82 60 49% NE713 15 mph 77° @ 0250 AM 82 63 94 49 30.11" 0 0 1004 0
Hobbs NM 5NW  12:15 PM 86 58 39% N34 14 mph 32° @ 0958 AM 86 66 93 39 30.12" 0 0 932 0
Jayton 1SSE  12:15 PM 81 68 68% NE711 25 mph 329° @ 0330 AM 81 69 98 65 30.00" 0 0.08 1018 0
Junction 1SSW  12:15 PM 89 66 47% S810 15 mph 308° @ 0317 AM 89 72 82 47 29.97" 0 0 509 0
Kent 9E  12:15 PM 85 56 37% E1112 16 mph 85° @ 1114 AM 87 69 69 36 30.11" 0 0 902 0
Knox City 3NW  12:15 PM 88 68 54% E26 16 mph 206° @ 0235 AM 88 72 96 54 29.97" 0 0.14 856 0
Lake Alan Henry 1NW  12:15 PM 82 69 64% N34 25 mph 258° @ 1211 AM 83 70 98 54 30.02" 0 0.07 310 0
Lake McClellan 2NW  12:15 PM 83 61 48% N67 15 mph 32° @ 1159 AM 86 65 96 45 30.09" 0 0 491 0
Lamesa 2SE  12:15 PM 79 67 69% NE510 20 mph 48° @ 0150 AM 79 68 92 69 30.06" 0 0.13 980 0
Lesley 2S  12:15 PM 86 66 51% NE69 15 mph 34° @ 1132 AM 88 71 95 47 30.01" 0 0.01 487 0
Levelland 4S  12:15 PM 82 64 58% NE713 22 mph 349° @ 0140 AM 82 66 95 58 30.09" 0 0.01 899 0
Lomax 1SSE  12:15 PM 84 69 61% NE78 19 mph 42° @ 1202 AM 84 69 93 60 30.03" 0 0.22 917 0
Lubbock 3WNW TTU  12:15 PM 82 66 63% NE914 22 mph 50° @ 1230 AM 82 67 93 62 30.07" 0 0.10 789 0
McAdoo 3NNW  12:15 PM 83 69 63% NE711 34 mph 303° @ 0113 AM 83 68 99 60 30.06" 0 0.57 1025 0
McCamey 1SSW  12:15 PM 89 61 39% SE67 27 mph 65° @ 0117 AM 89 73 72 38 30.01" 0 0.01 818 0
McLean 1E  12:15 PM 82 64 56% N710 15 mph 54° @ 1145 AM 84 65 100 54 30.05" 0 0 578 0
Memphis 1NE  12:15 PM 86 66 54% NE813 16 mph 355° @ 0940 AM 86 70 97 54 30.01" 0 0 900 0
Menard 2NW   12:15 PM 83 69 63% NE46 26 mph 321° @ 0137 AM 83 72 88 53 29.99" 0 0 102 0
Mertzon 3NNE  12:15 PM 83 70 63% NE12 25 mph 211° @ 1203 AM 83 70 100 49 30.01" 0.01 0.05 953 0
Morton 1ENE  12:15 PM 83 60 47% NE1014 20 mph 127° @ 1230 AM 84 65 87 46 30.09" 0 0.01 927 0
Muleshoe 2SSW  12:15 PM 82 63 56% NE913 17 mph 44° @ 1205 PM 82 64 98 56 30.10" 0.01 0.01 981 0
New Home  12:15 PM 80 70 70% NE810 16 mph 100° @ 0247 AM 80 69 95 70 30.08" 0 0.06 988 0
Northfield 1S  12:15 PM 88 63 45% NE812 18 mph 44° @ 1210 PM 88 70 90 44 30.00" 0 0 953 0
O'Donnell 1N  12:15 PM 78 69 76% NE59 21 mph 24° @ 0125 AM 78 69 94 76 30.07" 0 0.14 934 0
Odell 4ENE  12:15 PM 87 70 57% NE1218 18 mph 38° @ 1215 PM 88 71 98 52 29.97" 0 0 948 0
Olton 6S  12:15 PM 80 66 66% NE1117 17 mph 35° @ 1215 PM 80 67 99 66 30.11" 0 0.01 987 0
Paducah 10SW  12:15 PM 84 69 64% NE913 22 mph 68° @ 0540 AM 84 68 98 64 30.00" 0 1.15 944 0
Palo Duro 4E (JA Ranch)  12:15 PM 85 66 53% NE912 14 mph 21° @ 1147 AM 86 68 98 52 30.05" 0 0 914 0
Palo Duro Canyon SP Floor  12:15 PM 87 63 45% NW24 13 mph 116° @ 1235 AM 89 70 99 43 30.05" 0 0.04 1034 0
Palo Duro Canyon State Park Rim  12:15 PM 84 62 48% NE35 14 mph 86° @ 1209 AM 85 68 100 45 30.11" 0 0.11 1041 0
Palo Duro Reservoir 1NW   12:15 PM 84 63 49% NW57 10 mph 306° @ 0654 AM 85 62 96 49 30.08" 0 0 980 0
Pampa 2E  12:15 PM 82 62 54% N811 13 mph 65° @ 1120 AM 83 64 99 53 30.09" 0 0 847 0
Panhandle 1SSW  12:15 PM 82 63 52% N813 13 mph 21° @ 1215 PM 83 63 100 49 30.11" 0 0 988 0
Plains 3N  12:15 PM 83 61 50% NE1018 18 mph 37° @ 1130 AM 83 65 94 48 30.09" 0 0 922 0
Plainview 1S  12:15 PM 82 68 66% N815 15 mph 12° @ 1215 PM 82 68 100 66 30.07" 0.01 0.09 943 0
Post 1NE  12:15 PM 83 66 61% SE48 28 mph 300° @ 1235 AM 83 70 98 60 30.04" 0 0.14 589 0
Ralls 1SE  12:15 PM 82 66 63% N913 28 mph 303° @ 1235 AM 82 68 91 63 30.07" 0 0.53 864 0
Reese Center  12:15 PM 82 68 63% NE1012 26 mph 102° @ 0122 AM 82 68 97 63 30.07" 0 0.11 1103 0
Roaring Springs 3N  12:15 PM 83 67 62% N1015 18 mph 37° @ 1110 AM 85 68 100 60 30.03" 0 0 687 0
Romero 11SSW  12:15 PM 80 61 51% SW45 16 mph 59° @ 1156 AM 83 64 96 50 30.13" 0 0 948 0
Rotan 5W  12:15 PM 83 68 62% NE45 42 mph 228° @ 1239 AM 85 69 93 56 30.01" 0 0.01 537 0
San Angelo 7NW  12:15 PM 82 67 63% N24 29 mph 306° @ 0105 AM 83 71 92 52 29.99" 0 0 386 0
Seagraves 1SW  12:15 PM 81 65 62% N812 14 mph 114° @ 1215 AM 81 66 96 60 30.07" 0 0.01 865 0
Segovia 7SSW  12:15 PM 84 64 51% SE711 16 mph 338° @ 0402 AM 84 75 76 51 30.01" 0 0 329 0
Seminole 2NNE  12:15 PM 81 62 55% NE610 16 mph 130° @ 1245 AM 81 67 91 55 30.07" 0 0.02 914 0
Seymour 3NW  12:15 PM 84 70 66% SW23 16 mph 6° @ 1010 AM 84 70 92 66 29.97" 0 0 338 0
Sierra Blanca 1SSE  12:15 PM 87 55 33% S710 43 mph 43° @ 0216 AM 88 68 68 32 30.12" 0 0.02 806 0
Silverton 7ESE  12:15 PM 83 63 54% NE1015 17 mph 53° @ 1205 PM 83 66 100 54 30.08" 0 0.01 936 0
Slaton 2NE  12:15 PM 79 68 72% N915 25 mph 340° @ 1215 AM 79 69 96 71 30.06" 0 0.04 278 0
Smyer  12:15 PM 83 66 57% NE810 19 mph 33° @ 1152 AM 84 66 97 54 30.08" 0 0.02 1024 0
Snyder 3E  12:15 PM 79 68 72% N36 32 mph 228° @ 1210 AM 80 66 99 58 30.03" 0 0.93 489 0
Snyder 3SSW  12:15 PM 78 71 78% S34 32 mph 244° @ 1202 AM 80 67 100 72 30.03" 0 0.18 193 0
South Plains 3ENE  12:15 PM 82 65 57% NE911 18 mph 84° @ 1222 AM 83 68 97 55 30.07" 0 0 244 0
Spur 1W  12:15 PM 83 67 62% NE811 28 mph 304° @ 0235 AM 84 68 98 61 30.00" 0 1.63 710 0
St. Lawrence 5SW  12:15 PM 88 60 41% N515 29 mph 14° @ 1205 AM 88 68 88 40 30.02" 0 0.02 909 0
Stamford 5ESE  12:15 PM 79 70 74% N34 33 mph 213° @ 0152 AM 82 71 90 64 30.00" 0 0 264 0
Sterling City 4WSW  12:15 PM 83 66 55% NW13 26 mph 309° @ 1219 AM 84 68 100 55 30.02" 0 0.18 769 0
Stinnett 1NNW  12:15 PM 83 62 50% N1011 13 mph 30° @ 1213 PM 84 66 99 49 30.11" 0 0 944 0
Stratford 4WNW  12:15 PM 81 62 52% SE13 11 mph 120° @ 1203 PM 82 61 97 51 30.14" 0 0 947 0
Sundown 8WSW  12:15 PM 83 63 53% NE711 17 mph 21° @ 0955 AM 83 65 94 52 30.09" 0 0.01 778 0
Sweetwater 11SW   12:15 PM 78 69 76% NW56 51 mph 270° @ 1218 AM 82 66 97 55 30.05" 0 0.13 626 0
Tahoka 3NNE  12:15 PM 82 69 63% NE1013 14 mph 13° @ 1111 AM 82 68 94 63 30.06" 0 0.09 984 0
Tarzan 2WNW  12:15 PM 80 68 68% NE25 23 mph 11° @ 1201 AM 80 68 100 67 30.05" 0 0.13 933 0
Tatum NM 2SW  12:15 PM 85 54 36% N713 16 mph 354° @ 1105 AM 85 63 91 36 30.10" 0 0 884 0
Throckmorton 1SW  12:15 PM 83 72 69% NW35 17 mph 235° @ 0258 AM 83 71 95 67 29.97" 0 0 374 0
Truscott 2SE  12:15 PM 84 70 63% N68 14 mph 183° @ 0329 AM 86 71 96 59 29.98" 0 0.01 290 0
Tulia 2ENE  12:15 PM 81 62 57% NE710 23 mph 15° @ 0230 AM 81 67 98 56 30.09" 0 0.17 667 0
Turkey 2WSW  12:15 PM 85 65 53% N1021 21 mph 16° @ 1215 PM 85 70 96 52 30.02" 0 0 680 0
Umbarger 3NNE  12:15 PM 82 63 51% NE1011 16 mph 133° @ 0340 AM 82 65 99 50 30.13" 0 0.01 931 0
Van Horn 3ENE  12:15 PM 89 56 34% SE34 16 mph 354° @ 0407 AM 89 70 66 33 30.08" 0 0 904 0
Vigo Park  12:15 PM 81 65 58% E912 21 mph 91° @ 1205 AM 84 67 100 54 30.10" 0 0 470 0
Wall 2E  12:15 PM 81 70 68% NE57 27 mph 286° @ 1221 AM 82 72 92 58 30.00" 0 0 365 0
Weinert 2NNE  12:15 PM 83 68 62% E55 21 mph 218° @ 0233 AM 83 71 92 61 29.98" 0 0.52 324 0
Welch  12:15 PM 80 68 68% NE68 20 mph 4° @ 0559 AM 80 68 100 68 30.07" 0 0.08 931 0
White River Lake 6NW  12:15 PM 83 66 60% N1118 33 mph 290° @ 0120 AM 83 67 98 54 30.03" 0.01 1.72 680 0
Wolfforth 6SSW  12:15 PM 80 67 67% NE811 15 mph 50° @ 1140 AM 80 68 96 67 30.07" 0 0.02 758 0

West Texas Mesonet Home   Site Map/Menu  NWS Lubbock Soil Data  Daily Summary Page  24hr Precip  72hr Precip  Google Plot